VIR6MZ EGLL-EGPF
Flight info
| Callsign | VIR6MZ |
|---|---|
| Flight time | 0h 59m |
| Altitude | 38000 |
| Route | ULTIB T420 TNT UN57 POL UN601 RIBEL DCT ASLIB |
| Aircraft | A346/H-SDE2E3FGHIJ3J4J5M1RWXY/LB1D1 |
Departure
| Time | 2026-05-07 00:00 |
|---|---|
| Airport | London Heathrow Airport (EGLL) |
Arrival
| Time | 2026-05-07 01:00 |
|---|---|
| Airport | Glasgow Airport (EGPF) |
| Time | Latitude | Longitude | Altitude | Speed | Heading |
|---|---|---|---|---|---|
| 2026-05-06 23:18 | 51.46959 | -0.46480 | 94 ft | 0 kts | 56° |
| 2026-05-06 23:45 | 51.46958 | -0.46481 | 96 ft | 2 kts | 56° |
| 2026-05-06 23:45 | 51.46944 | -0.46515 | 97 ft | 4 kts | 56° |
| 2026-05-06 23:45 | 51.46932 | -0.46543 | 94 ft | 4 kts | 63° |
| 2026-05-06 23:45 | 51.46927 | -0.46573 | 97 ft | 4 kts | 97° |
| 2026-05-06 23:46 | 51.46933 | -0.46596 | 95 ft | 4 kts | 138° |
| 2026-05-06 23:46 | 51.46953 | -0.46619 | 96 ft | 4 kts | 146° |
| 2026-05-06 23:46 | 51.46970 | -0.46638 | 97 ft | 0 kts | 146° |
| 2026-05-06 23:53 | 51.46969 | -0.46636 | 94 ft | 2 kts | 146° |
| 2026-05-06 23:53 | 51.46922 | -0.46584 | 97 ft | 12 kts | 145° |
| 2026-05-06 23:54 | 51.46837 | -0.46491 | 97 ft | 16 kts | 146° |
| 2026-05-06 23:54 | 51.46780 | -0.46452 | 98 ft | 8 kts | 192° |
| 2026-05-06 23:54 | 51.46749 | -0.46532 | 98 ft | 11 kts | 264° |
| 2026-05-06 23:54 | 51.46748 | -0.46678 | 98 ft | 15 kts | 269° |
| 2026-05-06 23:55 | 51.46747 | -0.46872 | 98 ft | 19 kts | 270° |
| 2026-05-06 23:55 | 51.46747 | -0.47103 | 98 ft | 22 kts | 270° |
| 2026-05-06 23:55 | 51.46746 | -0.47368 | 98 ft | 25 kts | 269° |
| 2026-05-06 23:55 | 51.46744 | -0.47677 | 95 ft | 27 kts | 270° |
| 2026-05-06 23:56 | 51.46743 | -0.47994 | 95 ft | 28 kts | 269° |
| 2026-05-06 23:56 | 51.46742 | -0.48286 | 95 ft | 23 kts | 269° |
| 2026-05-06 23:56 | 51.46737 | -0.48423 | 96 ft | 8 kts | 248° |
| 2026-05-06 23:56 | 51.46680 | -0.48467 | 97 ft | 12 kts | 180° |
| 2026-05-06 23:57 | 51.46618 | -0.48467 | 95 ft | 0 kts | 179° |
| 2026-05-06 23:57 | 51.46614 | -0.48467 | 95 ft | 5 kts | 179° |
| 2026-05-06 23:58 | 51.46528 | -0.48465 | 96 ft | 13 kts | 179° |
| 2026-05-06 23:58 | 51.46483 | -0.48428 | 98 ft | 4 kts | 98° |
| 2026-05-06 23:58 | 51.46482 | -0.48413 | 98 ft | 3 kts | 95° |
| 2026-05-06 23:58 | 51.46480 | -0.48365 | 98 ft | 6 kts | 91° |
| 2026-05-06 23:59 | 51.46480 | -0.48355 | 98 ft | 0 kts | 90° |
| 2026-05-06 23:59 | 51.46479 | -0.48279 | 97 ft | 28 kts | 90° |
| 2026-05-07 00:00 | 51.46481 | -0.47533 | 94 ft | 102 kts | 89° |
| 2026-05-07 00:00 | 51.46487 | -0.46042 | 96 ft | 162 kts | 89° |
| 2026-05-07 00:00 | 51.46487 | -0.44070 | 534 ft | 178 kts | 89° |
| 2026-05-07 00:00 | 51.46488 | -0.42739 | 1148 ft | 173 kts | 89° |
| 2026-05-07 00:01 | 51.46998 | -0.40400 | 2172 ft | 175 kts | 49° |
| 2026-05-07 00:01 | 51.47859 | -0.38911 | 2691 ft | 189 kts | 47° |
| 2026-05-07 00:01 | 51.48770 | -0.37247 | 3178 ft | 206 kts | 49° |
| 2026-05-07 00:01 | 51.49762 | -0.35387 | 3647 ft | 227 kts | 49° |
| 2026-05-07 00:02 | 51.50856 | -0.33311 | 4220 ft | 247 kts | 49° |
| 2026-05-07 00:02 | 51.51997 | -0.31106 | 4838 ft | 264 kts | 53° |
| 2026-05-07 00:02 | 51.52841 | -0.28431 | 5556 ft | 270 kts | 70° |
| 2026-05-07 00:02 | 51.53415 | -0.25546 | 5934 ft | 272 kts | 73° |
| 2026-05-07 00:03 | 51.53958 | -0.22627 | 5998 ft | 273 kts | 73° |
| 2026-05-07 00:03 | 51.54660 | -0.19807 | 5960 ft | 272 kts | 54° |
| 2026-05-07 00:03 | 51.56101 | -0.17895 | 5989 ft | 272 kts | 22° |
| 2026-05-07 00:03 | 51.57956 | -0.17472 | 6019 ft | 272 kts | 351° |
| 2026-05-07 00:04 | 51.59645 | -0.18635 | 6020 ft | 271 kts | 319° |
| 2026-05-07 00:04 | 51.60862 | -0.20950 | 6041 ft | 271 kts | 306° |
| 2026-05-07 00:04 | 51.62097 | -0.23258 | 6033 ft | 272 kts | 315° |
| 2026-05-07 00:04 | 51.63533 | -0.25236 | 6030 ft | 271 kts | 323° |
| 2026-05-07 00:05 | 51.65087 | -0.26963 | 6028 ft | 272 kts | 327° |
| 2026-05-07 00:05 | 51.66700 | -0.28585 | 6044 ft | 276 kts | 328° |
| 2026-05-07 00:05 | 51.68381 | -0.30217 | 6664 ft | 287 kts | 328° |
| 2026-05-07 00:05 | 51.70072 | -0.31843 | 7941 ft | 279 kts | 328° |
| 2026-05-07 00:06 | 51.71725 | -0.33435 | 9226 ft | 276 kts | 329° |
| 2026-05-07 00:06 | 51.73380 | -0.35031 | 10269 ft | 279 kts | 329° |
| 2026-05-07 00:06 | 51.75082 | -0.36674 | 10981 ft | 292 kts | 329° |
| 2026-05-07 00:06 | 51.76881 | -0.38413 | 11536 ft | 311 kts | 329° |
| 2026-05-07 00:07 | 51.78797 | -0.40267 | 12053 ft | 330 kts | 328° |
| 2026-05-07 00:07 | 51.80809 | -0.42217 | 12737 ft | 343 kts | 328° |
| 2026-05-07 00:07 | 51.82872 | -0.44215 | 13721 ft | 348 kts | 328° |
| 2026-05-07 00:07 | 51.84956 | -0.46237 | 14649 ft | 351 kts | 328° |
| 2026-05-07 00:08 | 51.87069 | -0.48290 | 15521 ft | 356 kts | 328° |
| 2026-05-07 00:08 | 51.89208 | -0.50370 | 16390 ft | 361 kts | 328° |
| 2026-05-07 00:08 | 51.91375 | -0.52480 | 17256 ft | 366 kts | 328° |
| 2026-05-07 00:08 | 51.93571 | -0.54620 | 18120 ft | 371 kts | 328° |
| 2026-05-07 00:09 | 51.95030 | -0.56045 | 18636 ft | 374 kts | 328° |
| 2026-05-07 00:09 | 51.98041 | -0.58989 | 19644 ft | 380 kts | 328° |
| 2026-05-07 00:09 | 51.99548 | -0.60463 | 20151 ft | 383 kts | 328° |
| 2026-05-07 00:09 | 52.01835 | -0.62703 | 20907 ft | 387 kts | 328° |
| 2026-05-07 00:10 | 52.04907 | -0.65714 | 21944 ft | 393 kts | 327° |
| 2026-05-07 00:10 | 52.07262 | -0.68024 | 22694 ft | 397 kts | 327° |
| 2026-05-07 00:10 | 52.09630 | -0.70353 | 23437 ft | 401 kts | 327° |
| 2026-05-07 00:10 | 52.11253 | -0.71951 | 23875 ft | 404 kts | 327° |
| 2026-05-07 00:11 | 52.13668 | -0.74333 | 24506 ft | 408 kts | 328° |
| 2026-05-07 00:11 | 52.16112 | -0.76747 | 25136 ft | 412 kts | 328° |
| 2026-05-07 00:11 | 52.18572 | -0.79177 | 25769 ft | 415 kts | 328° |
| 2026-05-07 00:11 | 52.21050 | -0.81629 | 26418 ft | 418 kts | 328° |
| 2026-05-07 00:12 | 52.23565 | -0.84120 | 27042 ft | 422 kts | 328° |
| 2026-05-07 00:12 | 52.26086 | -0.86622 | 27649 ft | 426 kts | 328° |
| 2026-05-07 00:12 | 52.28625 | -0.89147 | 28237 ft | 429 kts | 329° |
| 2026-05-07 00:12 | 52.31154 | -0.91666 | 28833 ft | 433 kts | 329° |
| 2026-05-07 00:13 | 52.33739 | -0.94236 | 29423 ft | 436 kts | 329° |
| 2026-05-07 00:13 | 52.36344 | -0.96827 | 30015 ft | 440 kts | 329° |
| 2026-05-07 00:13 | 52.38972 | -0.99445 | 30498 ft | 444 kts | 329° |
| 2026-05-07 00:13 | 52.41620 | -1.02090 | 30974 ft | 447 kts | 330° |
| 2026-05-07 00:14 | 52.44366 | -1.04837 | 31553 ft | 447 kts | 330° |
| 2026-05-07 00:14 | 52.47017 | -1.07493 | 32269 ft | 445 kts | 329° |
| 2026-05-07 00:14 | 52.49651 | -1.10138 | 33001 ft | 442 kts | 329° |
| 2026-05-07 00:14 | 52.52264 | -1.12765 | 33692 ft | 440 kts | 329° |
| 2026-05-07 00:15 | 52.54867 | -1.15392 | 34309 ft | 438 kts | 330° |
| 2026-05-07 00:15 | 52.57471 | -1.18013 | 34825 ft | 437 kts | 329° |
| 2026-05-07 00:15 | 52.60070 | -1.20630 | 35287 ft | 438 kts | 329° |
| 2026-05-07 00:15 | 52.62636 | -1.23220 | 35705 ft | 439 kts | 329° |
| 2026-05-07 00:16 | 52.65243 | -1.25857 | 36127 ft | 440 kts | 329° |
| 2026-05-07 00:16 | 52.67857 | -1.28507 | 36530 ft | 441 kts | 328° |
| 2026-05-07 00:16 | 52.70473 | -1.31163 | 36864 ft | 443 kts | 328° |
| 2026-05-07 00:16 | 52.73103 | -1.33839 | 37192 ft | 446 kts | 328° |
| 2026-05-07 00:17 | 52.75744 | -1.36532 | 37572 ft | 448 kts | 328° |
| 2026-05-07 00:17 | 52.78402 | -1.39248 | 37889 ft | 450 kts | 328° |
| 2026-05-07 00:17 | 52.81068 | -1.41973 | 38090 ft | 452 kts | 328° |
| 2026-05-07 00:17 | 52.83747 | -1.44715 | 38084 ft | 453 kts | 328° |
| 2026-05-07 00:18 | 52.89134 | -1.50244 | 38093 ft | 453 kts | 328° |
| 2026-05-07 00:18 | 52.94488 | -1.55754 | 38097 ft | 453 kts | 328° |
| 2026-05-07 00:19 | 52.99837 | -1.61271 | 38101 ft | 452 kts | 328° |
| 2026-05-07 00:19 | 53.05311 | -1.66419 | 38107 ft | 451 kts | 333° |
| 2026-05-07 00:20 | 53.11068 | -1.70577 | 38107 ft | 451 kts | 338° |
| 2026-05-07 00:20 | 53.16916 | -1.74212 | 38106 ft | 451 kts | 339° |
| 2026-05-07 00:21 | 53.22798 | -1.77845 | 38107 ft | 451 kts | 339° |
| 2026-05-07 00:21 | 53.28667 | -1.81492 | 38107 ft | 449 kts | 339° |
| 2026-05-07 00:22 | 53.34549 | -1.85169 | 38106 ft | 449 kts | 339° |
| 2026-05-07 00:22 | 53.40404 | -1.88840 | 38097 ft | 449 kts | 339° |
| 2026-05-07 00:23 | 53.46259 | -1.92521 | 38102 ft | 449 kts | 339° |
| 2026-05-07 00:23 | 53.52114 | -1.96213 | 38182 ft | 447 kts | 338° |
| 2026-05-07 00:24 | 53.54864 | -1.97954 | 39665 ft | 409 kts | 338° |
| 2026-05-07 00:24 | 53.57493 | -1.99621 | 40613 ft | 397 kts | 337° |
| 2026-05-07 00:24 | 53.60093 | -2.01310 | 40089 ft | 414 kts | 338° |
| 2026-05-07 00:24 | 53.62819 | -2.03038 | 39867 ft | 426 kts | 338° |
| 2026-05-07 00:25 | 53.65640 | -2.04813 | 39638 ft | 438 kts | 338° |
| 2026-05-07 00:25 | 53.68535 | -2.06642 | 39418 ft | 448 kts | 338° |
| 2026-05-07 00:25 | 53.71465 | -2.08503 | 39178 ft | 450 kts | 338° |
| 2026-05-07 00:25 | 53.74399 | -2.10373 | 38974 ft | 450 kts | 338° |
| 2026-05-07 00:26 | 53.77315 | -2.12309 | 38760 ft | 449 kts | 337° |
| 2026-05-07 00:26 | 53.80214 | -2.14298 | 38470 ft | 449 kts | 337° |
| 2026-05-07 00:26 | 53.83105 | -2.16293 | 38180 ft | 449 kts | 337° |
| 2026-05-07 00:26 | 53.86000 | -2.18283 | 38106 ft | 448 kts | 337° |
| 2026-05-07 00:27 | 53.91769 | -2.22233 | 38096 ft | 448 kts | 337° |
| 2026-05-07 00:27 | 53.97559 | -2.26207 | 38106 ft | 448 kts | 337° |
| 2026-05-07 00:28 | 54.03219 | -2.30542 | 38100 ft | 445 kts | 332° |
| 2026-05-07 00:28 | 54.08676 | -2.35573 | 38091 ft | 445 kts | 330° |
| 2026-05-07 00:29 | 54.14107 | -2.40690 | 37861 ft | 445 kts | 330° |
| 2026-05-07 00:30 | 54.22157 | -2.48289 | 37041 ft | 436 kts | 331° |
| 2026-05-07 00:30 | 54.24806 | -2.50792 | 36777 ft | 432 kts | 331° |
| 2026-05-07 00:30 | 54.27443 | -2.53286 | 36490 ft | 431 kts | 331° |
| 2026-05-07 00:30 | 54.30065 | -2.55770 | 36129 ft | 431 kts | 331° |
| 2026-05-07 00:31 | 54.32686 | -2.58258 | 35682 ft | 431 kts | 331° |
| 2026-05-07 00:31 | 54.35274 | -2.60718 | 35173 ft | 431 kts | 332° |
| 2026-05-07 00:31 | 54.37898 | -2.63216 | 34647 ft | 431 kts | 332° |
| 2026-05-07 00:31 | 54.40527 | -2.65722 | 34072 ft | 432 kts | 332° |
| 2026-05-07 00:32 | 54.43168 | -2.68235 | 33407 ft | 433 kts | 332° |
| 2026-05-07 00:32 | 54.45803 | -2.70741 | 32779 ft | 433 kts | 331° |
| 2026-05-07 00:32 | 54.48436 | -2.73248 | 32164 ft | 433 kts | 330° |
| 2026-05-07 00:32 | 54.51077 | -2.75771 | 31533 ft | 433 kts | 330° |
| 2026-05-07 00:33 | 54.53720 | -2.78307 | 30899 ft | 434 kts | 330° |
| 2026-05-07 00:33 | 54.56352 | -2.80838 | 30312 ft | 434 kts | 329° |
| 2026-05-07 00:33 | 54.58973 | -2.83362 | 29880 ft | 429 kts | 329° |
| 2026-05-07 00:33 | 54.61567 | -2.85867 | 29428 ft | 424 kts | 329° |
| 2026-05-07 00:34 | 54.64083 | -2.88300 | 29013 ft | 419 kts | 329° |
| 2026-05-07 00:34 | 54.66616 | -2.90751 | 28609 ft | 414 kts | 329° |
| 2026-05-07 00:34 | 54.69115 | -2.93171 | 28207 ft | 409 kts | 329° |
| 2026-05-07 00:34 | 54.71589 | -2.95570 | 27801 ft | 405 kts | 329° |
| 2026-05-07 00:35 | 54.74035 | -2.97935 | 27404 ft | 401 kts | 328° |
| 2026-05-07 00:35 | 54.76451 | -3.00283 | 27004 ft | 397 kts | 328° |
| 2026-05-07 00:35 | 54.78847 | -3.02621 | 26602 ft | 394 kts | 328° |
| 2026-05-07 00:35 | 54.81229 | -3.04947 | 26189 ft | 391 kts | 328° |
| 2026-05-07 00:36 | 54.83599 | -3.07264 | 25862 ft | 395 kts | 328° |
| 2026-05-07 00:36 | 54.86025 | -3.09643 | 25880 ft | 403 kts | 328° |
| 2026-05-07 00:36 | 54.88457 | -3.12026 | 26022 ft | 395 kts | 328° |
| 2026-05-07 00:36 | 54.90809 | -3.14327 | 26036 ft | 380 kts | 328° |
| 2026-05-07 00:37 | 54.93065 | -3.16538 | 26042 ft | 364 kts | 328° |
| 2026-05-07 00:37 | 54.95233 | -3.18667 | 25970 ft | 352 kts | 328° |
| 2026-05-07 00:37 | 54.97353 | -3.20755 | 25651 ft | 348 kts | 327° |
| 2026-05-07 00:37 | 54.99442 | -3.22813 | 25333 ft | 343 kts | 327° |
| 2026-05-07 00:38 | 55.01500 | -3.24847 | 25007 ft | 338 kts | 327° |
| 2026-05-07 00:38 | 55.03531 | -3.26857 | 24694 ft | 333 kts | 327° |
| 2026-05-07 00:38 | 55.05508 | -3.28814 | 24395 ft | 329 kts | 327° |
| 2026-05-07 00:38 | 55.07482 | -3.30769 | 24110 ft | 324 kts | 327° |
| 2026-05-07 00:39 | 55.09427 | -3.32699 | 23824 ft | 319 kts | 327° |
| 2026-05-07 00:39 | 55.11347 | -3.34605 | 23512 ft | 315 kts | 327° |
| 2026-05-07 00:39 | 55.13239 | -3.36485 | 23169 ft | 310 kts | 327° |
| 2026-05-07 00:39 | 55.15100 | -3.38336 | 22806 ft | 305 kts | 327° |
| 2026-05-07 00:40 | 55.16937 | -3.40167 | 22438 ft | 301 kts | 326° |
| 2026-05-07 00:40 | 55.18751 | -3.41976 | 22031 ft | 299 kts | 326° |
| 2026-05-07 00:40 | 55.20556 | -3.43779 | 21592 ft | 298 kts | 326° |
| 2026-05-07 00:40 | 55.22351 | -3.45572 | 21173 ft | 297 kts | 326° |
| 2026-05-07 00:41 | 55.24144 | -3.47363 | 20784 ft | 295 kts | 326° |
| 2026-05-07 00:41 | 55.25926 | -3.49148 | 20412 ft | 294 kts | 326° |
| 2026-05-07 00:41 | 55.27699 | -3.50926 | 20033 ft | 293 kts | 326° |
| 2026-05-07 00:41 | 55.29443 | -3.52675 | 19652 ft | 292 kts | 326° |
| 2026-05-07 00:42 | 55.31207 | -3.54446 | 19283 ft | 291 kts | 326° |
| 2026-05-07 00:42 | 55.32960 | -3.56208 | 18926 ft | 290 kts | 326° |
| 2026-05-07 00:42 | 55.34713 | -3.57972 | 18559 ft | 289 kts | 326° |
| 2026-05-07 00:42 | 55.36459 | -3.59730 | 18184 ft | 288 kts | 326° |
| 2026-05-07 00:43 | 55.38203 | -3.61489 | 17788 ft | 287 kts | 326° |
| 2026-05-07 00:43 | 55.39929 | -3.63230 | 17408 ft | 286 kts | 326° |
| 2026-05-07 00:43 | 55.41655 | -3.64973 | 17039 ft | 284 kts | 326° |
| 2026-05-07 00:43 | 55.43370 | -3.66708 | 16672 ft | 283 kts | 326° |
| 2026-05-07 00:44 | 55.45075 | -3.68433 | 16317 ft | 282 kts | 326° |
| 2026-05-07 00:44 | 55.46742 | -3.70121 | 15973 ft | 280 kts | 326° |
| 2026-05-07 00:44 | 55.48429 | -3.71830 | 15671 ft | 278 kts | 326° |
| 2026-05-07 00:44 | 55.50102 | -3.73528 | 15338 ft | 276 kts | 326° |
| 2026-05-07 00:45 | 55.51765 | -3.75220 | 14991 ft | 275 kts | 326° |
| 2026-05-07 00:45 | 55.53420 | -3.76904 | 14664 ft | 274 kts | 327° |
| 2026-05-07 00:45 | 55.55065 | -3.78581 | 14330 ft | 272 kts | 327° |
| 2026-05-07 00:45 | 55.56704 | -3.80252 | 13996 ft | 271 kts | 327° |
| 2026-05-07 00:46 | 55.58339 | -3.81921 | 13653 ft | 270 kts | 327° |
| 2026-05-07 00:46 | 55.59972 | -3.83588 | 13283 ft | 269 kts | 327° |
| 2026-05-07 00:46 | 55.61589 | -3.85239 | 12909 ft | 268 kts | 327° |
| 2026-05-07 00:46 | 55.63223 | -3.86911 | 12535 ft | 267 kts | 327° |
| 2026-05-07 00:47 | 55.64809 | -3.88536 | 12167 ft | 266 kts | 327° |
| 2026-05-07 00:47 | 55.66407 | -3.90176 | 11831 ft | 265 kts | 327° |
| 2026-05-07 00:47 | 55.68002 | -3.91814 | 11485 ft | 264 kts | 327° |
| 2026-05-07 00:47 | 55.69554 | -3.93534 | 11131 ft | 261 kts | 317° |
| 2026-05-07 00:48 | 55.70748 | -3.95909 | 10784 ft | 257 kts | 301° |
| 2026-05-07 00:48 | 55.71682 | -3.98599 | 10458 ft | 255 kts | 298° |
| 2026-05-07 00:48 | 55.72578 | -4.01299 | 10130 ft | 254 kts | 298° |
| 2026-05-07 00:48 | 55.73481 | -4.04022 | 9812 ft | 252 kts | 298° |
| 2026-05-07 00:49 | 55.74373 | -4.06702 | 9443 ft | 251 kts | 298° |
| 2026-05-07 00:49 | 55.75266 | -4.09373 | 9106 ft | 251 kts | 298° |
| 2026-05-07 00:49 | 55.76158 | -4.12032 | 8748 ft | 250 kts | 298° |
| 2026-05-07 00:49 | 55.77049 | -4.14687 | 8386 ft | 250 kts | 298° |
| 2026-05-07 00:50 | 55.77939 | -4.17336 | 8038 ft | 249 kts | 298° |
| 2026-05-07 00:50 | 55.78825 | -4.19978 | 7717 ft | 248 kts | 298° |
| 2026-05-07 00:50 | 55.79709 | -4.22612 | 7381 ft | 248 kts | 297° |
| 2026-05-07 00:50 | 55.80590 | -4.25244 | 7094 ft | 246 kts | 297° |
| 2026-05-07 00:51 | 55.81466 | -4.27863 | 7032 ft | 247 kts | 297° |
| 2026-05-07 00:51 | 55.82340 | -4.30478 | 7016 ft | 248 kts | 297° |
| 2026-05-07 00:51 | 55.83223 | -4.33127 | 7007 ft | 248 kts | 297° |
| 2026-05-07 00:51 | 55.84103 | -4.35765 | 7005 ft | 248 kts | 297° |
| 2026-05-07 00:52 | 55.84988 | -4.38419 | 7004 ft | 248 kts | 297° |
| 2026-05-07 00:52 | 55.85686 | -4.41193 | 6972 ft | 243 kts | 275° |
| 2026-05-07 00:52 | 55.85492 | -4.44103 | 6987 ft | 239 kts | 244° |
| 2026-05-07 00:52 | 55.84489 | -4.46410 | 6962 ft | 239 kts | 216° |
| 2026-05-07 00:53 | 55.83017 | -4.47723 | 6646 ft | 241 kts | 203° |
| 2026-05-07 00:53 | 55.81444 | -4.48861 | 6323 ft | 240 kts | 202° |
| 2026-05-07 00:53 | 55.79902 | -4.49987 | 6020 ft | 238 kts | 203° |
| 2026-05-07 00:53 | 55.78403 | -4.51098 | 5753 ft | 235 kts | 203° |
| 2026-05-07 00:54 | 55.76897 | -4.52220 | 5483 ft | 233 kts | 203° |
| 2026-05-07 00:54 | 55.75390 | -4.53349 | 5206 ft | 230 kts | 203° |
| 2026-05-07 00:54 | 55.73919 | -4.54450 | 4937 ft | 228 kts | 203° |
| 2026-05-07 00:54 | 55.72463 | -4.55541 | 4677 ft | 225 kts | 203° |
| 2026-05-07 00:55 | 55.71027 | -4.56616 | 4410 ft | 222 kts | 203° |
| 2026-05-07 00:55 | 55.69683 | -4.57907 | 4131 ft | 220 kts | 220° |
| 2026-05-07 00:55 | 55.68791 | -4.60085 | 3895 ft | 220 kts | 244° |
| 2026-05-07 00:55 | 55.68498 | -4.62742 | 3651 ft | 223 kts | 268° |
| 2026-05-07 00:56 | 55.68877 | -4.65457 | 3388 ft | 230 kts | 293° |
| 2026-05-07 00:56 | 55.69938 | -4.67715 | 3118 ft | 238 kts | 320° |
| 2026-05-07 00:56 | 55.71486 | -4.68900 | 2835 ft | 244 kts | 351° |
| 2026-05-07 00:56 | 55.73170 | -4.68566 | 2561 ft | 246 kts | 24° |
| 2026-05-07 00:57 | 55.74157 | -4.67571 | 2428 ft | 247 kts | 39° |
| 2026-05-07 00:57 | 55.75426 | -4.65524 | 2396 ft | 232 kts | 49° |
| 2026-05-07 00:57 | 55.76855 | -4.62787 | 2402 ft | 227 kts | 51° |
| 2026-05-07 00:57 | 55.77934 | -4.60699 | 2375 ft | 223 kts | 50° |
| 2026-05-07 00:58 | 55.78999 | -4.58692 | 2222 ft | 220 kts | 49° |
| 2026-05-07 00:58 | 55.79712 | -4.57355 | 2007 ft | 220 kts | 49° |
| 2026-05-07 00:58 | 55.80782 | -4.55352 | 1770 ft | 218 kts | 49° |
| 2026-05-07 00:58 | 55.81804 | -4.53431 | 1433 ft | 214 kts | 49° |
| 2026-05-07 00:59 | 55.83753 | -4.49772 | 784 ft | 186 kts | 48° |
| 2026-05-07 00:59 | 55.84604 | -4.48179 | 567 ft | 169 kts | 48° |
| 2026-05-07 00:59 | 55.85382 | -4.46722 | 363 ft | 155 kts | 49° |
| 2026-05-07 01:00 | 55.86087 | -4.45397 | 147 ft | 144 kts | 49° |
| 2026-05-07 01:00 | 55.86758 | -4.44144 | 37 ft | 123 kts | 46° |
| 2026-05-07 01:00 | 55.87165 | -4.43383 | 37 ft | 44 kts | 46° |
| 2026-05-07 01:00 | 55.87337 | -4.43063 | 37 ft | 34 kts | 46° |
| 2026-05-07 01:01 | 55.87503 | -4.42752 | 37 ft | 34 kts | 46° |
| 2026-05-07 01:01 | 55.87669 | -4.42442 | 37 ft | 32 kts | 46° |
| 2026-05-07 01:01 | 55.87744 | -4.42298 | 37 ft | 8 kts | 64° |
| 2026-05-07 01:01 | 55.87723 | -4.42188 | 37 ft | 12 kts | 135° |
| 2026-05-07 01:02 | 55.87632 | -4.42165 | 37 ft | 16 kts | 200° |
| 2026-05-07 01:02 | 55.87540 | -4.42310 | 37 ft | 20 kts | 227° |
| 2026-05-07 01:02 | 55.87436 | -4.42504 | 37 ft | 23 kts | 226° |
| 2026-05-07 01:02 | 55.87312 | -4.42644 | 37 ft | 21 kts | 199° |
| 2026-05-07 01:03 | 55.87165 | -4.42743 | 37 ft | 23 kts | 202° |
| 2026-05-07 01:03 | 55.87041 | -4.42823 | 37 ft | 18 kts | 199° |
| 2026-05-07 01:03 | 55.86933 | -4.42907 | 37 ft | 14 kts | 206° |
| 2026-05-07 01:03 | 55.86859 | -4.42993 | 37 ft | 11 kts | 233° |
| 2026-05-07 01:04 | 55.86840 | -4.43089 | 37 ft | 11 kts | 251° |
| 2026-05-07 01:04 | 55.86806 | -4.43283 | 37 ft | 19 kts | 254° |
| 2026-05-07 01:04 | 55.86773 | -4.43489 | 37 ft | 16 kts | 254° |
| 2026-05-07 01:04 | 55.86759 | -4.43575 | 37 ft | 0 kts | 253° |
| 2026-05-07 01:05 | 55.86757 | -4.43588 | 37 ft | 3 kts | 253° |
| 2026-05-07 01:05 | 55.86745 | -4.43622 | 37 ft | 2 kts | 195° |
| 2026-05-07 01:06 | 55.86720 | -4.43619 | 37 ft | 3 kts | 162° |
| 2026-05-07 01:06 | 55.86686 | -4.43600 | 37 ft | 5 kts | 168° |
| 2026-05-07 01:06 | 55.86661 | -4.43628 | 36 ft | 3 kts | 237° |
| 2026-05-07 01:06 | 55.86654 | -4.43656 | 37 ft | 4 kts | 248° |
| 2026-05-07 01:07 | 55.86646 | -4.43702 | 37 ft | 3 kts | 254° |
| 2026-05-07 01:07 | 55.86644 | -4.43714 | 37 ft | 0 kts | 254° |